Time;durP1;ratioP1;P1;durP2;ratioP2;P2;SDS_P1;SDS_P2;PMS_P1;PMS_P2;Temp;Humidity;BMP_temperature;BMP_pressure;BME280_temperature;BME280_humidity;BME280_pressure;Samples;Min_cycle;Max_cycle;Signal;HPM_P1;HPM_P2
2023/11/14 00:01:05;;;;;;;2.40;2.00;;;11.50;99.90;;;;;;5068452;28;20441;-80
2023/11/14 00:03:32;;;;;;;0.97;0.60;;;11.40;99.90;;;;;;5068716;28;20444;-80
2023/11/14 00:06:00;;;;;;;8.33;2.40;;;11.40;99.90;;;;;;5064797;28;20532;-79
2023/11/14 00:08:26;;;;;;;10.33;3.57;;;11.40;99.90;;;;;;5064767;28;20441;-79
2023/11/14 00:10:54;;;;;;;1.80;1.13;;;11.40;99.90;;;;;;5067261;28;20613;-80
2023/11/14 00:13:21;;;;;;;0.87;0.80;;;11.40;99.90;;;;;;5068361;28;20464;-80
2023/11/14 00:15:49;;;;;;;3.70;2.40;;;11.40;99.90;;;;;;5067042;28;20519;-81
2023/11/14 00:18:16;;;;;;;1.53;0.77;;;11.40;99.90;;;;;;5064732;28;20516;-80
2023/11/14 00:20:43;;;;;;;0.80;0.73;;;11.50;99.90;;;;;;5064870;28;20466;-81
2023/11/14 00:23:10;;;;;;;1.10;0.87;;;11.40;99.90;;;;;;5068074;28;20436;-79
2023/11/14 00:25:36;;;;;;;0.50;0.40;;;11.40;99.90;;;;;;5068240;28;21023;-80
2023/11/14 00:28:03;;;;;;;1.77;0.80;;;11.40;99.90;;;;;;5055994;28;20833;-80
2023/11/14 00:30:30;;;;;;;2.00;1.80;;;11.50;99.90;;;;;;5064291;28;20485;-79
2023/11/14 00:33:00;;;;;;;1.33;1.30;;;11.50;99.90;;;;;;5066886;28;20444;-79
2023/11/14 00:35:27;;;;;;;1.17;0.53;;;11.50;99.90;;;;;;5067698;28;20478;-79
2023/11/14 00:37:54;;;;;;;0.70;0.40;;;11.50;99.90;;;;;;5065185;28;20455;-80
2023/11/14 00:40:21;;;;;;;1.47;1.37;;;11.50;99.90;;;;;;5063914;28;20445;-79
2023/11/14 00:42:48;;;;;;;4.23;1.20;;;11.40;99.90;;;;;;5065475;28;20448;-80
2023/11/14 00:45:16;;;;;;;9.70;2.60;;;11.40;99.90;;;;;;5067039;28;20467;-80
2023/11/14 00:47:42;;;;;;;1.30;1.20;;;11.50;99.90;;;;;;5066945;28;20444;-80
2023/11/14 00:50:11;;;;;;;0.60;0.47;;;11.50;99.90;;;;;;5063980;28;20470;-80
2023/11/14 00:52:39;;;;;;;7.40;2.03;;;11.50;99.90;;;;;;5063887;28;20478;-80
2023/11/14 00:55:06;;;;;;;11.53;0.90;;;11.50;99.90;;;;;;5055780;28;20957;-80
2023/11/14 00:57:33;;;;;;;20.60;1.50;;;11.50;99.90;;;;;;5063127;28;21008;-79
2023/11/14 01:00:00;;;;;;;2.30;1.50;;;11.50;99.90;;;;;;5066274;28;20441;-80
2023/11/14 01:02:27;;;;;;;1.73;1.63;;;11.50;99.90;;;;;;5067318;28;20448;-81
2023/11/14 01:04:54;;;;;;;8.13;3.30;;;11.50;99.90;;;;;;5065175;28;20461;-80
2023/11/14 01:07:22;;;;;;;5.95;1.80;;;11.50;99.90;;;;;;5064249;28;20441;-79
2023/11/14 01:09:49;;;;;;;3.63;1.40;;;11.50;99.90;;;;;;5064301;28;20728;-79
2023/11/14 01:12:16;;;;;;;6.73;3.33;;;11.50;99.90;;;;;;5067287;28;20449;-80
2023/11/14 01:14:42;;;;;;;8.80;1.90;;;11.50;99.90;;;;;;5067139;28;20496;-78
2023/11/14 01:17:09;;;;;;;3.00;2.43;;;11.50;99.90;;;;;;5063807;28;20548;-81
2023/11/14 01:19:40;;;;;;;0.50;0.40;;;11.40;99.90;;;;;;5071259;28;20527;-80
2023/11/14 01:22:09;;;;;;;21.93;1.97;;;11.50;99.90;;;;;;5063788;28;20433;-81
2023/11/14 01:24:37;;;;;;;2.00;1.43;;;11.50;99.90;;;;;;5063451;28;20564;-80
2023/11/14 01:27:04;;;;;;;1.17;1.07;;;11.40;99.90;;;;;;5066757;28;20455;-80
2023/11/14 01:29:31;;;;;;;14.53;4.33;;;11.50;99.90;;;;;;5066952;28;20453;-77
2023/11/14 01:31:58;;;;;;;12.60;2.03;;;11.40;99.90;;;;;;5065435;28;20455;-79
2023/11/14 01:34:25;;;;;;;0.73;0.73;;;11.50;99.90;;;;;;5063151;28;20472;-78
2023/11/14 01:36:55;;;;;;;5.00;1.77;;;11.50;99.90;;;;;;5064893;28;20445;-80
2023/11/14 01:39:23;;;;;;;6.47;3.13;;;11.50;99.90;;;;;;5066331;28;20447;-80
2023/11/14 01:41:52;;;;;;;2.60;0.73;;;11.50;99.90;;;;;;5065888;28;20531;-80
2023/11/14 01:44:19;;;;;;;6.53;2.93;;;11.50;99.90;;;;;;5063041;28;20458;-81
2023/11/14 01:46:46;;;;;;;6.30;1.77;;;11.40;99.90;;;;;;5063175;28;20816;-78
2023/11/14 01:49:13;;;;;;;2.13;1.30;;;11.40;99.90;;;;;;5066288;28;20441;-81
2023/11/14 01:51:42;;;;;;;5.90;3.53;;;11.40;99.90;;;;;;5067054;28;20478;-80
2023/11/14 01:54:10;;;;;;;3.63;1.73;;;11.30;99.90;;;;;;5063481;28;20466;-79
2023/11/14 01:56:37;;;;;;;3.27;2.50;;;11.30;99.90;;;;;;5063613;28;20449;-80
2023/11/14 01:59:05;;;;;;;0.50;0.40;;;11.30;99.90;;;;;;5065123;28;20544;-80
2023/11/14 02:01:33;;;;;;;13.33;3.27;;;11.40;99.90;;;;;;5066838;28;20440;-79
2023/11/14 02:04:00;;;;;;;3.90;2.10;;;11.40;99.90;;;;;;5063732;28;20460;-80
2023/11/14 02:06:28;;;;;;;9.70;2.40;;;11.40;99.90;;;;;;5063544;28;20793;-76
2023/11/14 02:08:55;;;;;;;9.37;1.07;;;11.30;99.90;;;;;;5062584;28;20503;-79
2023/11/14 02:11:22;;;;;;;14.00;3.07;;;11.30;99.90;;;;;;5068039;28;20474;-79
2023/11/14 02:13:49;;;;;;;6.80;3.50;;;11.30;99.90;;;;;;5061083;28;20544;-80
2023/11/14 02:16:17;;;;;;;8.70;2.30;;;11.30;99.90;;;;;;5066300;28;20440;-80
2023/11/14 02:18:44;;;;;;;3.45;1.27;;;11.20;99.90;;;;;;5066362;28;20954;-80
2023/11/14 02:21:13;;;;;;;1.63;1.53;;;11.30;99.90;;;;;;5063081;28;20191;-81
2023/11/14 02:23:44;;;;;;;2.43;2.20;;;11.30;99.90;;;;;;5062980;28;20448;-81
2023/11/14 02:26:12;;;;;;;7.70;2.10;;;11.20;99.90;;;;;;5065601;28;20841;-81
2023/11/14 02:28:39;;;;;;;5.00;1.13;;;11.20;99.90;;;;;;5066012;28;20450;-80
2023/11/14 02:31:06;;;;;;;3.47;1.77;;;11.30;99.90;;;;;;5063487;28;20472;-80
2023/11/14 02:33:37;;;;;;;1.43;0.93;;;11.30;99.90;;;;;;5062826;28;20437;-80
2023/11/14 02:36:05;;;;;;;0.70;0.67;;;11.30;99.90;;;;;;5064467;28;20524;-80
2023/11/14 02:38:32;;;;;;;5.53;0.90;;;11.30;99.90;;;;;;5065968;28;20447;-80
2023/11/14 02:40:59;;;;;;;0.87;0.87;;;11.30;99.90;;;;;;5064131;28;20433;-79
2023/11/14 02:43:27;;;;;;;3.03;0.50;;;11.30;99.90;;;;;;5062454;28;20955;-81
2023/11/14 02:45:54;;;;;;;5.43;1.17;;;11.30;99.90;;;;;;5070390;28;20472;-80
2023/11/14 02:48:20;;;;;;;1.93;1.60;;;11.30;99.90;;;;;;5062651;28;20433;-80
2023/11/14 02:50:52;;;;;;;1.37;1.27;;;11.30;99.90;;;;;;5062493;28;20484;-80
2023/11/14 02:53:20;;;;;;;12.13;3.47;;;11.30;99.90;;;;;;5055030;28;20441;-80
2023/11/14 02:55:47;;;;;;;6.93;2.37;;;11.30;99.90;;;;;;5061944;28;20677;-80
2023/11/14 02:58:14;;;;;;;2.93;1.23;;;11.30;99.90;;;;;;5065430;28;20432;-80
2023/11/14 03:00:47;;;;;;;16.60;3.10;;;11.30;99.90;;;;;;5065752;28;20432;-80
2023/11/14 03:03:14;;;;;;;3.07;1.70;;;11.30;99.90;;;;;;5062619;28;20908;-79
2023/11/14 03:05:41;;;;;;;26.45;3.15;;;11.20;99.90;;;;;;5061453;28;20468;-80
2023/11/14 03:08:08;;;;;;;4.47;2.07;;;11.00;99.90;;;;;;5062906;28;20662;-80
2023/11/14 03:10:35;;;;;;;1.10;1.00;;;10.90;99.90;;;;;;5064918;28;20481;-78
2023/11/14 03:13:02;;;;;;;3.50;1.90;;;10.80;99.90;;;;;;5063077;28;20449;-79
2023/11/14 03:15:29;;;;;;;19.90;3.63;;;10.80;99.90;;;;;;5061131;28;20553;-80
2023/11/14 03:17:58;;;;;;;1.60;1.13;;;10.70;99.90;;;;;;5060785;28;20437;-78
2023/11/14 03:20:25;;;;;;;3.23;1.97;;;10.70;99.90;;;;;;5064454;28;20432;-79
2023/11/14 03:22:52;;;;;;;2.90;0.93;;;10.70;99.90;;;;;;5064229;28;20445;-79
2023/11/14 03:25:19;;;;;;;8.80;2.13;;;10.70;99.90;;;;;;5060304;28;20487;-79
2023/11/14 03:27:46;;;;;;;15.37;2.73;;;10.70;99.90;;;;;;5060819;28;20452;-79
2023/11/14 03:30:14;;;;;;;5.83;1.50;;;10.80;99.90;;;;;;5062573;28;20452;-79
2023/11/14 03:32:41;;;;;;;5.70;2.30;;;10.80;99.90;;;;;;5064218;28;20443;-80
2023/11/14 03:35:10;;;;;;;0.50;0.40;;;10.70;99.90;;;;;;5061836;28;20479;-79
2023/11/14 03:37:38;;;;;;;0.50;0.40;;;10.70;99.90;;;;;;5060783;28;20206;-79
2023/11/14 03:40:05;;;;;;;0.90;0.80;;;10.60;99.90;;;;;;5061689;28;20449;-79
2023/11/14 03:42:33;;;;;;;4.43;1.37;;;10.60;99.90;;;;;;5064270;28;20845;-81
2023/11/14 03:45:00;;;;;;;0.50;0.40;;;10.60;99.90;;;;;;5063013;28;20461;-80
2023/11/14 03:47:26;;;;;;;0.70;0.50;;;10.50;99.90;;;;;;5060543;28;20442;-80
2023/11/14 03:49:53;;;;;;;5.53;1.57;;;10.50;99.90;;;;;;5060517;28;20449;-79
2023/11/14 03:52:21;;;;;;;1.80;1.70;;;10.50;99.90;;;;;;5055522;28;20484;-80
2023/11/14 03:54:48;;;;;;;4.00;1.48;;;10.60;99.90;;;;;;5064488;28;20457;-80
2023/11/14 03:57:15;;;;;;;3.88;1.45;;;10.60;99.90;;;;;;5053322;28;20202;-80
2023/11/14 03:59:42;;;;;;;4.93;1.13;;;10.60;99.90;;;;;;5054139;28;20210;-79
2023/11/14 04:02:08;;;;;;;1.08;0.90;;;10.70;99.90;;;;;;5060712;28;20197;-79
2023/11/14 04:04:35;;;;;;;4.17;0.90;;;10.70;99.90;;;;;;5062572;28;20243;-79
2023/11/14 04:07:02;;;;;;;6.67;2.53;;;10.70;99.90;;;;;;5061909;28;20619;-80
2023/11/14 04:09:30;;;;;;;4.93;2.27;;;10.80;99.90;;;;;;5059750;28;20443;-79
2023/11/14 04:11:57;;;;;;;4.07;1.73;;;10.80;99.90;;;;;;5058624;28;20643;-78
2023/11/14 04:14:24;;;;;;;9.73;1.45;;;10.80;99.90;;;;;;5062831;28;20492;-78
2023/11/14 04:16:51;;;;;;;7.23;3.00;;;10.80;99.90;;;;;;5063498;28;20290;-80
2023/11/14 04:19:17;;;;;;;0.93;0.70;;;10.80;99.90;;;;;;5055404;28;20446;-79
2023/11/14 04:21:44;;;;;;;1.50;0.90;;;10.80;99.90;;;;;;5063520;28;20443;-81
2023/11/14 04:24:11;;;;;;;1.23;1.13;;;10.90;99.90;;;;;;5053855;28;20461;-78
2023/11/14 04:26:41;;;;;;;3.23;1.07;;;10.90;99.90;;;;;;5051722;28;20821;-79
2023/11/14 04:29:08;;;;;;;3.80;2.40;;;10.90;99.90;;;;;;5051912;28;20506;-79
2023/11/14 04:31:35;;;;;;;5.07;1.67;;;11.00;99.90;;;;;;5061503;28;20469;-78
2023/11/14 04:34:01;;;;;;;1.58;1.25;;;11.00;99.90;;;;;;5063576;28;20539;-78
2023/11/14 04:36:30;;;;;;;4.00;1.30;;;11.10;99.90;;;;;;5064469;28;20554;-78
2023/11/14 04:38:56;;;;;;;3.30;0.57;;;11.10;99.90;;;;;;5065259;28;20444;-80
2023/11/14 04:41:23;;;;;;;3.53;0.77;;;11.10;99.90;;;;;;5067658;28;20498;-80
2023/11/14 04:43:51;;;;;;;1.10;1.10;;;11.10;99.90;;;;;;5068799;28;20845;-80
2023/11/14 04:46:18;;;;;;;5.80;1.37;;;11.20;99.90;;;;;;5058080;28;20445;-80
2023/11/14 04:48:45;;;;;;;7.03;2.03;;;11.20;99.90;;;;;;5062072;28;20437;-79
2023/11/14 04:51:12;;;;;;;0.80;0.80;;;11.10;99.90;;;;;;5065224;28;20504;-82
2023/11/14 04:53:38;;;;;;;5.27;2.00;;;11.10;99.90;;;;;;5067084;28;20437;-80
2023/11/14 04:56:05;;;;;;;3.80;1.90;;;11.10;99.90;;;;;;5059083;28;20929;-80
2023/11/14 04:58:32;;;;;;;3.80;1.43;;;11.10;99.90;;;;;;5058114;28;20449;-79
2023/11/14 05:01:01;;;;;;;3.13;0.90;;;11.20;99.90;;;;;;5072101;28;20432;-80
2023/11/14 05:03:27;;;;;;;1.83;0.93;;;11.10;99.90;;;;;;5064177;28;20438;-80
2023/11/14 05:05:54;;;;;;;20.87;3.80;;;11.10;99.90;;;;;;5062324;28;20449;-80
2023/11/14 05:08:21;;;;;;;6.20;1.70;;;11.10;99.90;;;;;;5067719;28;20451;-81
2023/11/14 05:10:48;;;;;;;9.87;1.83;;;11.20;99.90;;;;;;5067815;28;20444;-81
2023/11/14 05:13:14;;;;;;;38.60;3.63;;;11.20;99.90;;;;;;5065707;28;20443;-80
2023/11/14 05:15:41;;;;;;;1.23;0.87;;;11.10;99.90;;;;;;5068975;28;20469;-80
2023/11/14 05:18:09;;;;;;;4.20;1.80;;;11.10;99.90;;;;;;5066538;28;20444;-81
2023/11/14 05:20:36;;;;;;;0.60;0.50;;;11.20;99.90;;;;;;5063619;28;20448;-80
2023/11/14 05:23:03;;;;;;;5.80;0.63;;;11.20;99.90;;;;;;5063737;28;20434;-80
2023/11/14 05:25:30;;;;;;;1.47;0.60;;;11.20;99.90;;;;;;5063131;28;20501;-80
2023/11/14 05:27:57;;;;;;;5.50;2.30;;;11.20;99.90;;;;;;5067052;28;20432;-80
2023/11/14 05:30:25;;;;;;;19.83;2.67;;;11.20;99.90;;;;;;5066259;28;20443;-81
2023/11/14 05:32:52;;;;;;;4.40;1.70;;;11.20;99.90;;;;;;5065707;28;20567;-80
2023/11/14 05:35:20;;;;;;;14.03;3.67;;;11.20;99.90;;;;;;5064289;28;20464;-79
2023/11/14 05:37:47;;;;;;;2.00;1.70;;;11.20;99.90;;;;;;5062671;28;20597;-79
2023/11/14 05:40:14;;;;;;;1.43;1.33;;;11.20;99.90;;;;;;5063442;28;20967;-79
2023/11/14 05:42:41;;;;;;;0.60;0.40;;;11.20;99.90;;;;;;5065995;28;20437;-79
2023/11/14 05:45:10;;;;;;;2.70;1.10;;;11.20;99.90;;;;;;5064775;28;20990;-81
2023/11/14 05:47:37;;;;;;;15.77;0.90;;;11.20;99.90;;;;;;5062403;28;20871;-81
2023/11/14 05:50:04;;;;;;;9.60;1.03;;;11.20;99.90;;;;;;5062283;28;20439;-80
2023/11/14 05:52:33;;;;;;;0.50;0.30;;;11.20;99.90;;;;;;5065115;28;20991;-80
2023/11/14 05:55:01;;;;;;;8.30;1.17;;;11.20;99.90;;;;;;5066498;28;20453;-81
2023/11/14 05:57:28;;;;;;;7.30;2.63;;;11.20;99.90;;;;;;5064350;28;20445;-80
2023/11/14 05:59:55;;;;;;;13.73;2.83;;;11.20;99.90;;;;;;5063922;28;20450;-81
2023/11/14 06:02:23;;;;;;;3.22;1.48;;;11.20;99.90;;;;;;5065154;28;20798;-80
2023/11/14 06:04:50;;;;;;;15.33;1.97;;;11.20;99.90;;;;;;5057144;28;20222;-82
2023/11/14 06:07:17;;;;;;;5.40;2.87;;;11.30;99.90;;;;;;5063648;28;20449;-81
2023/11/14 06:09:45;;;;;;;1.83;1.20;;;11.20;99.90;;;;;;5066636;28;20820;-81
2023/11/14 06:12:12;;;;;;;1.00;0.90;;;11.20;99.90;;;;;;5066025;28;20523;-81
2023/11/14 06:14:39;;;;;;;3.63;1.70;;;11.20;99.90;;;;;;5062614;28;20465;-81
2023/11/14 06:17:07;;;;;;;3.33;1.03;;;11.30;99.90;;;;;;5063814;28;20544;-81
2023/11/14 06:19:36;;;;;;;13.03;1.00;;;11.30;99.90;;;;;;5065828;28;20952;-77
2023/11/14 06:22:03;;;;;;;0.50;0.40;;;11.20;99.90;;;;;;5067893;28;20494;-81
2023/11/14 06:24:30;;;;;;;2.00;1.07;;;11.20;99.90;;;;;;5064272;28;20492;-82
2023/11/14 06:26:58;;;;;;;0.50;0.40;;;11.10;99.90;;;;;;5063784;28;20437;-82
2023/11/14 06:29:25;;;;;;;3.87;2.70;;;11.10;99.90;;;;;;5065301;28;20452;-82
2023/11/14 06:31:52;;;;;;;1.20;0.90;;;11.10;99.90;;;;;;5067034;28;20863;-81
2023/11/14 06:34:21;;;;;;;1.07;1.07;;;11.10;99.90;;;;;;5065632;28;20487;-82
2023/11/14 06:36:48;;;;;;;4.40;1.90;;;11.20;99.90;;;;;;5064170;28;20450;-82
2023/11/14 06:39:14;;;;;;;35.27;2.17;;;11.20;99.90;;;;;;5063531;28;20441;-81
2023/11/14 06:41:41;;;;;;;7.00;3.80;;;11.10;99.90;;;;;;5062900;28;20438;-82
2023/11/14 06:44:09;;;;;;;3.20;0.93;;;11.10;99.90;;;;;;5062562;28;20218;-82
2023/11/14 06:46:36;;;;;;;12.27;3.13;;;11.10;99.90;;;;;;5065382;28;20469;-81
2023/11/14 06:49:03;;;;;;;0.73;0.70;;;11.20;99.90;;;;;;5065741;28;20444;-81
2023/11/14 06:51:29;;;;;;;7.53;3.10;;;11.20;99.90;;;;;;5114427;22;20545;-82
2023/11/14 06:53:56;;;;;;;1.80;1.50;;;11.20;99.90;;;;;;5063149;28;20436;-83
2023/11/14 06:56:23;;;;;;;11.03;2.50;;;11.20;99.90;;;;;;5071890;28;20448;-82
2023/11/14 06:58:50;;;;;;;5.37;2.43;;;11.20;99.90;;;;;;5072066;28;20436;-81
2023/11/14 07:01:18;;;;;;;4.70;1.70;;;11.20;99.90;;;;;;5071885;28;20464;-81
2023/11/14 07:03:45;;;;;;;0.80;0.50;;;11.20;99.90;;;;;;5071871;28;20445;-80
2023/11/14 07:06:12;;;;;;;0.50;0.40;;;11.30;99.90;;;;;;5071632;28;20948;-80
2023/11/14 07:08:39;;;;;;;4.37;2.93;;;11.30;99.90;;;;;;5071298;28;20437;-81
2023/11/14 07:11:06;;;;;;;2.93;1.13;;;11.30;99.90;;;;;;5071857;28;20472;-80
2023/11/14 07:13:33;;;;;;;11.30;2.40;;;11.30;99.90;;;;;;5070834;28;20490;-81
2023/11/14 07:16:00;;;;;;;6.90;1.80;;;11.40;99.90;;;;;;5073329;28;20443;-81
2023/11/14 07:18:28;;;;;;;6.20;1.63;;;11.40;99.90;;;;;;5071342;28;20451;-80
2023/11/14 07:20:55;;;;;;;8.20;3.27;;;11.30;99.90;;;;;;5071972;28;20484;-80
2023/11/14 07:23:21;;;;;;;1.00;0.90;;;11.30;99.90;;;;;;5071305;28;20432;-81
2023/11/14 07:25:48;;;;;;;10.13;2.10;;;11.30;99.90;;;;;;5073611;28;20432;-80
2023/11/14 07:28:15;;;;;;;6.83;3.17;;;11.30;99.90;;;;;;5074009;28;20444;-80
2023/11/14 07:30:42;;;;;;;1.00;1.00;;;11.30;99.90;;;;;;5064711;28;20457;-81
2023/11/14 07:33:09;;;;;;;2.70;2.50;;;11.30;99.90;;;;;;5073066;28;20468;-79
2023/11/14 07:35:37;;;;;;;6.60;2.00;;;11.30;99.90;;;;;;5081233;28;20441;-82
2023/11/14 07:38:05;;;;;;;6.53;2.30;;;11.40;99.90;;;;;;5081210;28;20539;-81
2023/11/14 07:40:33;;;;;;;5.17;2.13;;;11.40;99.90;;;;;;5081082;28;20456;-80
2023/11/14 07:43:02;;;;;;;2.10;1.43;;;11.50;99.90;;;;;;5085489;28;20437;-82
2023/11/14 07:45:29;;;;;;;6.57;1.80;;;11.50;99.90;;;;;;5080514;28;20502;-82
2023/11/14 07:47:56;;;;;;;2.40;2.20;;;11.50;99.90;;;;;;5086253;28;20500;-82
2023/11/14 07:50:23;;;;;;;6.53;1.60;;;11.50;99.90;;;;;;5088471;28;20460;-81
2023/11/14 07:52:51;;;;;;;0.90;0.57;;;11.50;99.90;;;;;;5082911;28;20476;-82
2023/11/14 07:55:19;;;;;;;10.57;3.57;;;11.60;99.90;;;;;;5080541;28;20527;-82
2023/11/14 07:57:46;;;;;;;0.70;0.70;;;11.60;99.90;;;;;;5073394;28;20516;-81
2023/11/14 08:00:13;;;;;;;0.63;0.63;;;11.70;99.90;;;;;;5078971;28;20447;-82
2023/11/14 08:02:41;;;;;;;2.10;0.60;;;11.70;99.90;;;;;;5077625;28;20443;-82
2023/11/14 08:05:08;;;;;;;5.13;2.27;;;11.70;99.90;;;;;;5075883;28;20479;-82
2023/11/14 08:07:35;;;;;;;0.50;0.30;;;11.80;99.90;;;;;;5077204;28;20443;-83
2023/11/14 08:10:03;;;;;;;1.37;1.17;;;11.80;99.90;;;;;;5078955;28;20446;-83
2023/11/14 08:12:30;;;;;;;2.73;0.40;;;11.70;99.90;;;;;;5079485;28;20523;-81
2023/11/14 08:14:57;;;;;;;2.70;1.47;;;11.70;99.90;;;;;;5078784;28;20959;-81
2023/11/14 08:17:24;;;;;;;1.00;0.90;;;11.70;99.90;;;;;;5079412;28;20519;-81
2023/11/14 08:19:50;;;;;;;1.80;1.10;;;11.80;99.90;;;;;;5079583;28;20487;-81
2023/11/14 08:22:17;;;;;;;2.10;1.23;;;11.80;99.90;;;;;;5083173;28;20457;-81
2023/11/14 08:24:44;;;;;;;2.73;0.80;;;11.80;99.90;;;;;;5086590;28;20443;-81
2023/11/14 08:27:12;;;;;;;1.93;1.83;;;11.90;99.90;;;;;;5086032;28;20447;-80
2023/11/14 08:29:39;;;;;;;0.90;0.77;;;11.90;99.90;;;;;;5085048;28;20447;-81
2023/11/14 08:32:08;;;;;;;17.00;2.10;;;11.90;99.90;;;;;;5083735;28;20530;-79
2023/11/14 08:34:35;;;;;;;1.43;1.33;;;11.90;99.90;;;;;;5084363;28;20504;-80
2023/11/14 08:37:03;;;;;;;0.60;0.50;;;11.90;99.90;;;;;;5084098;28;20512;-80
2023/11/14 08:39:29;;;;;;;0.57;0.57;;;11.90;99.90;;;;;;5085684;28;20478;-80
2023/11/14 08:41:56;;;;;;;0.50;0.40;;;11.90;99.90;;;;;;5084744;28;20539;-80
2023/11/14 08:44:24;;;;;;;0.60;0.60;;;11.90;99.90;;;;;;5085041;28;20437;-81
2023/11/14 08:46:52;;;;;;;0.80;0.40;;;12.00;99.90;;;;;;5076294;28;20440;-81
2023/11/14 08:49:20;;;;;;;0.50;0.40;;;12.00;99.90;;;;;;5086078;28;20464;-80
2023/11/14 08:51:47;;;;;;;2.70;1.40;;;12.00;99.90;;;;;;5076593;28;20506;-81
2023/11/14 08:54:14;;;;;;;2.97;1.27;;;12.00;99.90;;;;;;5075690;28;20443;-81
2023/11/14 08:56:42;;;;;;;0.50;0.50;;;12.00;99.90;;;;;;5075937;28;20441;-81
2023/11/14 08:59:08;;;;;;;2.30;1.40;;;11.90;99.90;;;;;;5076208;28;20558;-81
2023/11/14 09:01:37;;;;;;;2.73;0.90;;;12.00;99.90;;;;;;5076052;28;20547;-81
2023/11/14 09:04:04;;;;;;;6.80;2.80;;;12.00;99.90;;;;;;5075028;28;20752;-80
2023/11/14 09:06:31;;;;;;;9.97;2.53;;;12.00;99.90;;;;;;5075274;28;21046;-81
2023/11/14 09:08:58;;;;;;;1.63;1.53;;;11.90;99.90;;;;;;5074948;28;20453;-80
2023/11/14 09:11:25;;;;;;;61.80;1.87;;;12.00;99.90;;;;;;5075758;28;20475;-81
2023/11/14 09:13:56;;;;;;;4.03;2.63;;;12.10;99.90;;;;;;5067870;28;20477;-82
2023/11/14 09:16:23;;;;;;;10.40;1.90;;;12.10;99.90;;;;;;5077785;28;20963;-82
2023/11/14 09:18:51;;;;;;;14.40;3.33;;;12.10;99.90;;;;;;5076590;28;20444;-82
2023/11/14 09:21:18;;;;;;;1.80;0.63;;;12.10;99.90;;;;;;5077466;28;20464;-82
2023/11/14 09:23:45;;;;;;;1.70;0.73;;;12.10;99.90;;;;;;5076730;28;20435;-81
2023/11/14 09:26:13;;;;;;;14.10;3.17;;;12.10;99.90;;;;;;5071099;28;20460;-81
2023/11/14 09:28:40;;;;;;;0.60;0.60;;;12.10;99.90;;;;;;5076775;28;20954;-82
2023/11/14 09:31:08;;;;;;;1.27;1.17;;;12.10;99.90;;;;;;5077626;28;20465;-82
2023/11/14 09:33:35;;;;;;;10.63;1.60;;;12.20;99.90;;;;;;5076108;28;20480;-81
2023/11/14 09:36:04;;;;;;;1.90;1.00;;;12.20;99.90;;;;;;5076327;28;20552;-81
2023/11/14 09:38:32;;;;;;;2.30;2.10;;;12.20;99.90;;;;;;5076662;28;20472;-81
2023/11/14 09:41:02;;;;;;;2.67;2.47;;;12.20;99.90;;;;;;5077097;28;20459;-83
2023/11/14 09:43:29;;;;;;;1.87;0.90;;;12.30;99.90;;;;;;5081679;28;20491;-82
2023/11/14 09:45:58;;;;;;;1.07;0.80;;;12.30;99.90;;;;;;5075783;28;20508;-81
2023/11/14 09:48:25;;;;;;;2.00;1.80;;;12.40;99.90;;;;;;5080664;28;20535;-81
2023/11/14 09:50:54;;;;;;;1.30;0.90;;;12.60;99.90;;;;;;5076530;28;20456;-81
2023/11/14 09:53:24;;;;;;;6.90;1.50;;;12.60;99.90;;;;;;5076486;28;20475;-81
2023/11/14 09:55:53;;;;;;;4.67;2.73;;;12.70;99.90;;;;;;5076915;28;20927;-82
2023/11/14 09:58:20;;;;;;;0.60;0.60;;;12.70;99.90;;;;;;5085878;28;20445;-80
2023/11/14 10:00:47;;;;;;;43.30;3.57;;;12.80;99.90;;;;;;5084786;28;20461;-81
2023/11/14 10:03:14;;;;;;;4.47;2.20;;;12.90;99.90;;;;;;5079369;28;20451;-82
2023/11/14 10:05:41;;;;;;;2.50;2.30;;;12.90;99.90;;;;;;5076980;28;20444;-82
2023/11/14 10:08:12;;;;;;;0.97;0.67;;;12.80;99.90;;;;;;5077460;28;20441;-82
2023/11/14 10:10:43;;;;;;;5.70;2.17;;;12.80;99.90;;;;;;5076594;28;20859;-82
2023/11/14 10:13:20;;;;;;;7.87;2.40;;;12.80;99.90;;;;;;5076600;28;20486;-82
2023/11/14 10:15:46;;;;;;;2.63;2.43;;;12.90;99.90;;;;;;5076313;28;20444;-82
2023/11/14 10:18:29;;;;;;;0.50;0.37;;;12.80;99.90;;;;;;5077134;28;20513;-82
2023/11/14 10:20:56;;;;;;;0.60;0.60;;;12.80;99.90;;;;;;5076813;28;20685;-82
2023/11/14 10:23:31;;;;;;;0.77;0.77;;;12.80;99.90;;;;;;5077091;28;20436;-82
2023/11/14 10:26:08;;;;;;;8.80;0.97;;;12.80;99.90;;;;;;5070562;28;20447;-82
2023/11/14 10:28:35;;;;;;;5.03;2.10;;;12.80;99.90;;;;;;5076102;28;20467;-83
2023/11/14 10:31:02;;;;;;;4.57;1.23;;;12.70;99.90;;;;;;5076036;28;20524;-82
2023/11/14 10:33:40;;;;;;;3.43;1.23;;;12.70;99.90;;;;;;5075583;28;20483;-82
2023/11/14 10:36:09;;;;;;;1.83;1.33;;;12.70;99.90;;;;;;5072586;28;20436;-82
2023/11/14 10:38:36;;;;;;;0.70;0.53;;;12.70;99.90;;;;;;5076141;28;20510;-82
2023/11/14 10:41:03;;;;;;;1.00;0.87;;;12.70;99.90;;;;;;5075856;28;20499;-82
2023/11/14 10:43:32;;;;;;;2.73;1.57;;;12.70;99.90;;;;;;5075048;28;20428;-81
2023/11/14 10:46:02;;;;;;;4.00;1.03;;;12.60;99.90;;;;;;5075186;28;20433;-82
2023/11/14 10:48:29;;;;;;;3.70;1.60;;;12.60;99.90;;;;;;5075957;28;20458;-82
2023/11/14 10:50:57;;;;;;;4.53;1.03;;;12.50;99.90;;;;;;5075590;28;20532;-82
2023/11/14 10:53:26;;;;;;;7.63;1.70;;;12.50;99.90;;;;;;5074783;28;20472;-81
2023/11/14 10:55:54;;;;;;;3.53;1.87;;;12.50;99.90;;;;;;5074703;28;20495;-82
2023/11/14 10:58:21;;;;;;;5.07;1.87;;;12.50;99.90;;;;;;5075359;28;20477;-81
2023/11/14 11:00:49;;;;;;;1.63;0.70;;;12.50;99.90;;;;;;5075170;28;20842;-82
2023/11/14 11:03:17;;;;;;;3.67;0.80;;;12.40;99.90;;;;;;5075238;28;20871;-81
2023/11/14 11:05:44;;;;;;;1.23;1.23;;;12.50;99.90;;;;;;5073184;28;20436;-82
2023/11/14 11:08:12;;;;;;;3.27;0.90;;;12.50;99.90;;;;;;5073205;28;20447;-81
2023/11/14 11:10:42;;;;;;;1.73;1.63;;;12.50;99.90;;;;;;5074262;28;20987;-81
2023/11/14 11:13:12;;;;;;;6.13;0.97;;;12.50;99.90;;;;;;5073708;28;20479;-80
2023/11/14 11:15:46;;;;;;;6.80;1.73;;;12.60;99.90;;;;;;5073579;28;20441;-81
2023/11/14 11:18:15;;;;;;;4.60;1.20;;;12.70;99.90;;;;;;5073567;28;20444;-80
2023/11/14 11:20:43;;;;;;;2.60;1.60;;;12.70;99.90;;;;;;5073464;28;20469;-81
2023/11/14 11:23:11;;;;;;;0.80;0.70;;;12.70;99.90;;;;;;5072790;28;20907;-79
2023/11/14 11:25:41;;;;;;;2.07;1.90;;;12.70;99.90;;;;;;5073449;28;20501;-81
2023/11/14 11:28:32;;;;;;;9.20;0.80;;;12.60;99.90;;;;;;5066902;28;20441;-83
2023/11/14 11:31:11;;;;;;;0.50;0.30;;;12.60;99.90;;;;;;5075431;28;20482;-82
2023/11/14 11:33:41;;;;;;;0.50;0.40;;;12.60;99.90;;;;;;5069948;28;20474;-82
2023/11/14 11:36:30;;;;;;;0.60;0.60;;;12.50;99.90;;;;;;5068063;28;20536;-82
2023/11/14 11:38:59;;;;;;;2.13;1.93;;;12.60;99.90;;;;;;5075104;28;20436;-82
2023/11/14 11:41:26;;;;;;;1.90;0.90;;;12.60;99.90;;;;;;5075373;28;20463;-82
2023/11/14 11:44:08;;;;;;;0.50;0.40;;;12.50;99.90;;;;;;5078702;28;20434;-82
2023/11/14 11:46:45;;;;;;;0.70;0.53;;;12.50;99.90;;;;;;5079334;28;20428;-82
2023/11/14 11:49:32;;;;;;;3.83;1.53;;;12.40;99.90;;;;;;5074703;28;20470;-81
2023/11/14 11:52:16;;;;;;;0.80;0.67;;;12.30;99.90;;;;;;5088163;28;21063;-81
2023/11/14 11:54:45;;;;;;;3.40;0.70;;;12.20;99.90;;;;;;5088074;28;20500;-82
2023/11/14 11:57:12;;;;;;;0.50;0.40;;;12.30;99.90;;;;;;5089927;28;20444;-82
2023/11/14 12:00:19;;;;;;;2.03;0.60;;;12.30;99.90;;;;;;5090287;28;20439;-81
2023/11/14 12:02:47;;;;;;;3.80;1.67;;;12.40;99.90;;;;;;5076002;28;20452;-81
2023/11/14 12:05:18;;;;;;;5.73;3.57;;;12.30;99.90;;;;;;5084633;28;20444;-82
2023/11/14 12:07:46;;;;;;;1.90;0.80;;;12.20;99.90;;;;;;5091569;28;20453;-81
2023/11/14 12:10:16;;;;;;;1.53;0.70;;;12.30;99.90;;;;;;5089039;28;20445;-82
2023/11/14 12:12:44;;;;;;;3.40;0.80;;;12.20;99.90;;;;;;5080460;28;20477;-82
2023/11/14 12:15:16;;;;;;;4.13;1.60;;;12.10;99.90;;;;;;5079095;28;20468;-81
2023/11/14 12:17:47;;;;;;;85.20;4.57;;;12.10;99.90;;;;;;5079332;28;20444;-83
2023/11/14 12:20:14;;;;;;;4.67;2.57;;;12.10;99.90;;;;;;5071240;28;20533;-82
2023/11/14 12:22:43;;;;;;;0.60;0.53;;;12.10;99.90;;;;;;5078888;28;20432;-82
2023/11/14 12:25:10;;;;;;;0.50;0.50;;;12.10;99.90;;;;;;5070352;28;20447;-83
2023/11/14 12:27:38;;;;;;;3.90;1.63;;;12.20;99.90;;;;;;5078017;28;20877;-83
2023/11/14 12:30:10;;;;;;;0.80;0.40;;;12.20;99.90;;;;;;5077966;28;20447;-82
2023/11/14 12:32:37;;;;;;;0.50;0.40;;;12.30;99.90;;;;;;5078157;28;20467;-83
2023/11/14 12:35:03;;;;;;;1.20;1.10;;;12.30;99.90;;;;;;5078542;28;20559;-82
2023/11/14 12:37:30;;;;;;;0.50;0.40;;;12.30;99.90;;;;;;5079529;28;20914;-82
2023/11/14 12:40:06;;;;;;;1.13;0.60;;;12.40;99.90;;;;;;5078714;28;20443;-82
2023/11/14 12:42:37;;;;;;;5.40;0.63;;;12.40;99.90;;;;;;5085686;28;20471;-82
2023/11/14 12:45:08;;;;;;;0.60;0.60;;;12.40;99.90;;;;;;5078363;28;20436;-82
2023/11/14 12:47:35;;;;;;;1.33;0.90;;;12.50;99.90;;;;;;5079496;28;20441;-82
2023/11/14 12:50:02;;;;;;;3.47;1.87;;;12.50;99.90;;;;;;5078061;28;20436;-82